sensor_id;sensor_type;location;lat;lon;timestamp;temperature;humidity
51801;DHT22;37855;53.204;6.568;2023-04-24T00:00:54;11.60;78.60
51801;DHT22;37855;53.204;6.568;2023-04-24T00:03:23;11.60;78.50
51801;DHT22;37855;53.204;6.568;2023-04-24T00:05:49;11.60;78.50
51801;DHT22;37855;53.204;6.568;2023-04-24T00:08:15;11.60;78.40
51801;DHT22;37855;53.204;6.568;2023-04-24T00:10:41;11.60;78.40
51801;DHT22;37855;53.204;6.568;2023-04-24T00:13:07;11.60;78.40
51801;DHT22;37855;53.204;6.568;2023-04-24T00:15:36;11.60;78.40
51801;DHT22;37855;53.204;6.568;2023-04-24T00:18:01;11.60;78.40
51801;DHT22;37855;53.204;6.568;2023-04-24T00:20:28;11.60;78.40
51801;DHT22;37855;53.204;6.568;2023-04-24T00:22:55;11.60;78.40
51801;DHT22;37855;53.204;6.568;2023-04-24T00:25:21;11.70;78.30
51801;DHT22;37855;53.204;6.568;2023-04-24T00:27:46;11.60;78.40
51801;DHT22;37855;53.204;6.568;2023-04-24T00:30:12;11.60;78.40
51801;DHT22;37855;53.204;6.568;2023-04-24T00:32:38;11.70;78.40
51801;DHT22;37855;53.204;6.568;2023-04-24T00:35:04;11.60;78.40
51801;DHT22;37855;53.204;6.568;2023-04-24T00:37:31;11.70;78.30
51801;DHT22;37855;53.204;6.568;2023-04-24T00:39:57;11.60;78.30
51801;DHT22;37855;53.204;6.568;2023-04-24T00:42:23;11.60;78.20
51801;DHT22;37855;53.204;6.568;2023-04-24T00:44:52;11.60;77.80
51801;DHT22;37855;53.204;6.568;2023-04-24T00:47:19;11.60;77.70
51801;DHT22;37855;53.204;6.568;2023-04-24T00:49:45;11.50;77.60
51801;DHT22;37855;53.204;6.568;2023-04-24T00:52:11;11.50;77.60
51801;DHT22;37855;53.204;6.568;2023-04-24T00:54:37;11.50;77.40
51801;DHT22;37855;53.204;6.568;2023-04-24T00:57:04;11.40;77.40
51801;DHT22;37855;53.204;6.568;2023-04-24T00:59:30;11.40;77.30
51801;DHT22;37855;53.204;6.568;2023-04-24T01:01:56;11.50;77.30
51801;DHT22;37855;53.204;6.568;2023-04-24T01:04:22;11.40;77.20
51801;DHT22;37855;53.204;6.568;2023-04-24T01:06:48;11.40;77.20
51801;DHT22;37855;53.204;6.568;2023-04-24T01:09:16;11.40;77.10
51801;DHT22;37855;53.204;6.568;2023-04-24T01:11:43;11.40;77.10
51801;DHT22;37855;53.204;6.568;2023-04-24T01:14:08;11.40;77.20
51801;DHT22;37855;53.204;6.568;2023-04-24T01:16:35;11.40;77.20
51801;DHT22;37855;53.204;6.568;2023-04-24T01:19:01;11.40;77.20
51801;DHT22;37855;53.204;6.568;2023-04-24T01:21:30;11.40;77.10
51801;DHT22;37855;53.204;6.568;2023-04-24T01:24:01;11.40;77.10
51801;DHT22;37855;53.204;6.568;2023-04-24T01:26:27;11.30;77.00
51801;DHT22;37855;53.204;6.568;2023-04-24T01:28:56;11.30;76.90
51801;DHT22;37855;53.204;6.568;2023-04-24T01:31:22;11.30;76.80
51801;DHT22;37855;53.204;6.568;2023-04-24T01:33:48;11.30;76.80
51801;DHT22;37855;53.204;6.568;2023-04-24T01:36:14;11.20;76.70
51801;DHT22;37855;53.204;6.568;2023-04-24T01:38:41;11.20;76.70
51801;DHT22;37855;53.204;6.568;2023-04-24T01:41:07;11.20;76.80
51801;DHT22;37855;53.204;6.568;2023-04-24T01:43:33;11.20;76.80
51801;DHT22;37855;53.204;6.568;2023-04-24T01:45:58;11.20;76.80
51801;DHT22;37855;53.204;6.568;2023-04-24T01:48:24;11.20;76.80
51801;DHT22;37855;53.204;6.568;2023-04-24T01:50:50;11.10;76.80
51801;DHT22;37855;53.204;6.568;2023-04-24T01:53:16;11.10;76.90
51801;DHT22;37855;53.204;6.568;2023-04-24T01:55:41;11.20;76.90
51801;DHT22;37855;53.204;6.568;2023-04-24T01:58:07;11.10;76.90
51801;DHT22;37855;53.204;6.568;2023-04-24T02:00:33;11.00;77.10
51801;DHT22;37855;53.204;6.568;2023-04-24T02:02:59;11.00;77.00
51801;DHT22;37855;53.204;6.568;2023-04-24T02:05:24;10.90;77.00
51801;DHT22;37855;53.204;6.568;2023-04-24T02:07:50;10.90;77.10
51801;DHT22;37855;53.204;6.568;2023-04-24T02:10:15;11.00;77.10
51801;DHT22;37855;53.204;6.568;2023-04-24T02:12:41;10.90;77.00
51801;DHT22;37855;53.204;6.568;2023-04-24T02:15:07;10.90;77.20
51801;DHT22;37855;53.204;6.568;2023-04-24T02:17:33;10.90;77.20
51801;DHT22;37855;53.204;6.568;2023-04-24T02:19:58;10.90;77.20
51801;DHT22;37855;53.204;6.568;2023-04-24T02:22:24;10.90;77.30
51801;DHT22;37855;53.204;6.568;2023-04-24T02:24:50;11.00;77.30
51801;DHT22;37855;53.204;6.568;2023-04-24T02:27:15;11.00;77.30
51801;DHT22;37855;53.204;6.568;2023-04-24T02:29:41;10.90;77.20
51801;DHT22;37855;53.204;6.568;2023-04-24T02:32:07;10.90;77.30
51801;DHT22;37855;53.204;6.568;2023-04-24T02:34:36;10.90;77.20
51801;DHT22;37855;53.204;6.568;2023-04-24T02:37:02;10.90;77.20
51801;DHT22;37855;53.204;6.568;2023-04-24T02:39:28;10.90;77.30
51801;DHT22;37855;53.204;6.568;2023-04-24T02:41:53;10.90;77.40
51801;DHT22;37855;53.204;6.568;2023-04-24T02:44:19;10.90;77.30
51801;DHT22;37855;53.204;6.568;2023-04-24T02:46:45;10.90;77.50
51801;DHT22;37855;53.204;6.568;2023-04-24T02:49:10;10.90;77.50
51801;DHT22;37855;53.204;6.568;2023-04-24T02:51:37;10.90;77.50
51801;DHT22;37855;53.204;6.568;2023-04-24T02:54:09;11.00;77.60
51801;DHT22;37855;53.204;6.568;2023-04-24T02:56:35;10.90;77.70
51801;DHT22;37855;53.204;6.568;2023-04-24T02:59:04;10.90;77.60
51801;DHT22;37855;53.204;6.568;2023-04-24T03:01:29;10.90;77.70
51801;DHT22;37855;53.204;6.568;2023-04-24T03:03:57;10.80;77.70
51801;DHT22;37855;53.204;6.568;2023-04-24T03:06:23;10.90;77.80
51801;DHT22;37855;53.204;6.568;2023-04-24T03:08:49;10.90;78.00
51801;DHT22;37855;53.204;6.568;2023-04-24T03:11:14;10.90;78.30
51801;DHT22;37855;53.204;6.568;2023-04-24T03:13:40;10.80;78.20
51801;DHT22;37855;53.204;6.568;2023-04-24T03:16:05;10.80;78.10
51801;DHT22;37855;53.204;6.568;2023-04-24T03:18:31;10.80;78.20
51801;DHT22;37855;53.204;6.568;2023-04-24T03:20:57;10.90;78.30
51801;DHT22;37855;53.204;6.568;2023-04-24T03:23:23;10.90;78.30
51801;DHT22;37855;53.204;6.568;2023-04-24T03:25:48;10.90;78.50
51801;DHT22;37855;53.204;6.568;2023-04-24T03:28:14;10.90;78.40
51801;DHT22;37855;53.204;6.568;2023-04-24T03:30:40;10.90;78.30
51801;DHT22;37855;53.204;6.568;2023-04-24T03:33:06;10.90;78.30
51801;DHT22;37855;53.204;6.568;2023-04-24T03:35:31;10.90;78.40
51801;DHT22;37855;53.204;6.568;2023-04-24T03:37:57;10.90;78.40
51801;DHT22;37855;53.204;6.568;2023-04-24T03:40:23;10.90;78.40
51801;DHT22;37855;53.204;6.568;2023-04-24T03:42:48;10.90;78.40
51801;DHT22;37855;53.204;6.568;2023-04-24T03:45:14;10.90;78.50
51801;DHT22;37855;53.204;6.568;2023-04-24T03:47:40;10.90;78.40
51801;DHT22;37855;53.204;6.568;2023-04-24T03:50:06;10.90;78.40
51801;DHT22;37855;53.204;6.568;2023-04-24T03:52:32;10.90;78.40
51801;DHT22;37855;53.204;6.568;2023-04-24T03:55:00;10.90;78.50
51801;DHT22;37855;53.204;6.568;2023-04-24T03:57:26;10.90;78.40
51801;DHT22;37855;53.204;6.568;2023-04-24T03:59:51;10.90;78.40
51801;DHT22;37855;53.204;6.568;2023-04-24T04:02:18;10.90;78.40
51801;DHT22;37855;53.204;6.568;2023-04-24T04:04:44;10.90;78.50
51801;DHT22;37855;53.204;6.568;2023-04-24T04:07:10;10.80;78.50
51801;DHT22;37855;53.204;6.568;2023-04-24T04:09:36;10.80;78.50
51801;DHT22;37855;53.204;6.568;2023-04-24T04:12:02;10.80;78.60
51801;DHT22;37855;53.204;6.568;2023-04-24T04:14:28;10.80;78.60
51801;DHT22;37855;53.204;6.568;2023-04-24T04:16:54;10.80;78.60
51801;DHT22;37855;53.204;6.568;2023-04-24T04:19:19;10.80;78.50
51801;DHT22;37855;53.204;6.568;2023-04-24T04:21:51;10.80;78.50
51801;DHT22;37855;53.204;6.568;2023-04-24T04:24:19;10.80;78.50
51801;DHT22;37855;53.204;6.568;2023-04-24T04:26:46;10.80;78.40
51801;DHT22;37855;53.204;6.568;2023-04-24T04:29:13;10.80;78.40
51801;DHT22;37855;53.204;6.568;2023-04-24T04:31:39;10.80;78.50
51801;DHT22;37855;53.204;6.568;2023-04-24T04:34:05;10.80;78.40
51801;DHT22;37855;53.204;6.568;2023-04-24T04:36:31;10.80;78.50
51801;DHT22;37855;53.204;6.568;2023-04-24T04:38:56;10.80;78.50
51801;DHT22;37855;53.204;6.568;2023-04-24T04:41:24;10.80;78.50
51801;DHT22;37855;53.204;6.568;2023-04-24T04:43:50;10.80;78.50
51801;DHT22;37855;53.204;6.568;2023-04-24T04:46:19;10.80;78.30
51801;DHT22;37855;53.204;6.568;2023-04-24T04:48:44;10.80;78.50
51801;DHT22;37855;53.204;6.568;2023-04-24T04:51:11;10.80;78.50
51801;DHT22;37855;53.204;6.568;2023-04-24T04:53:36;10.70;78.50
51801;DHT22;37855;53.204;6.568;2023-04-24T04:56:02;10.70;78.50
51801;DHT22;37855;53.204;6.568;2023-04-24T04:58:28;10.70;78.60
51801;DHT22;37855;53.204;6.568;2023-04-24T05:00:54;10.70;78.50
51801;DHT22;37855;53.204;6.568;2023-04-24T05:03:19;10.70;78.70
51801;DHT22;37855;53.204;6.568;2023-04-24T05:05:45;10.70;78.60
51801;DHT22;37855;53.204;6.568;2023-04-24T05:08:11;10.70;78.70
51801;DHT22;37855;53.204;6.568;2023-04-24T05:10:37;10.70;78.80
51801;DHT22;37855;53.204;6.568;2023-04-24T05:13:03;10.60;79.10
51801;DHT22;37855;53.204;6.568;2023-04-24T05:15:29;10.60;79.00
51801;DHT22;37855;53.204;6.568;2023-04-24T05:17:55;10.50;78.80
51801;DHT22;37855;53.204;6.568;2023-04-24T05:20:24;10.50;78.90
51801;DHT22;37855;53.204;6.568;2023-04-24T05:22:50;10.50;79.00
51801;DHT22;37855;53.204;6.568;2023-04-24T05:25:16;10.50;79.00
51801;DHT22;37855;53.204;6.568;2023-04-24T05:27:41;10.50;79.20
51801;DHT22;37855;53.204;6.568;2023-04-24T05:30:07;10.50;79.00
51801;DHT22;37855;53.204;6.568;2023-04-24T05:32:33;10.50;79.30
51801;DHT22;37855;53.204;6.568;2023-04-24T05:35:02;10.50;79.50
51801;DHT22;37855;53.204;6.568;2023-04-24T05:37:28;10.50;79.50
51801;DHT22;37855;53.204;6.568;2023-04-24T05:39:53;10.40;79.80
51801;DHT22;37855;53.204;6.568;2023-04-24T05:42:19;10.50;79.80
51801;DHT22;37855;53.204;6.568;2023-04-24T05:44:45;10.50;79.60
51801;DHT22;37855;53.204;6.568;2023-04-24T05:47:10;10.50;79.90
51801;DHT22;37855;53.204;6.568;2023-04-24T05:49:36;10.40;80.10
51801;DHT22;37855;53.204;6.568;2023-04-24T05:52:02;10.40;80.10
51801;DHT22;37855;53.204;6.568;2023-04-24T05:54:29;10.40;80.10
51801;DHT22;37855;53.204;6.568;2023-04-24T05:56:55;10.30;79.90
51801;DHT22;37855;53.204;6.568;2023-04-24T05:59:21;10.30;80.30
51801;DHT22;37855;53.204;6.568;2023-04-24T06:01:46;10.30;80.00
51801;DHT22;37855;53.204;6.568;2023-04-24T06:04:12;10.30;80.20
51801;DHT22;37855;53.204;6.568;2023-04-24T06:06:41;10.30;80.30
51801;DHT22;37855;53.204;6.568;2023-04-24T06:09:07;10.30;80.10
51801;DHT22;37855;53.204;6.568;2023-04-24T06:11:32;10.20;80.30
51801;DHT22;37855;53.204;6.568;2023-04-24T06:13:58;10.10;80.30
51801;DHT22;37855;53.204;6.568;2023-04-24T06:16:24;10.10;80.10
51801;DHT22;37855;53.204;6.568;2023-04-24T06:18:50;10.10;80.30
51801;DHT22;37855;53.204;6.568;2023-04-24T06:21:16;10.10;80.30
51801;DHT22;37855;53.204;6.568;2023-04-24T06:23:42;10.10;80.20
51801;DHT22;37855;53.204;6.568;2023-04-24T06:26:08;10.10;80.30
51801;DHT22;37855;53.204;6.568;2023-04-24T06:28:36;10.10;80.40
51801;DHT22;37855;53.204;6.568;2023-04-24T06:31:02;10.10;80.40
51801;DHT22;37855;53.204;6.568;2023-04-24T06:33:27;10.10;80.40
51801;DHT22;37855;53.204;6.568;2023-04-24T06:35:53;10.10;80.40
51801;DHT22;37855;53.204;6.568;2023-04-24T06:38:19;10.10;80.40
51801;DHT22;37855;53.204;6.568;2023-04-24T06:40:45;10.10;80.30
51801;DHT22;37855;53.204;6.568;2023-04-24T06:43:10;10.10;80.10
51801;DHT22;37855;53.204;6.568;2023-04-24T06:45:36;10.20;79.90
51801;DHT22;37855;53.204;6.568;2023-04-24T06:48:02;10.10;80.10
51801;DHT22;37855;53.204;6.568;2023-04-24T06:50:28;10.10;80.40
51801;DHT22;37855;53.204;6.568;2023-04-24T06:52:53;10.00;80.50
51801;DHT22;37855;53.204;6.568;2023-04-24T06:55:19;10.00;80.50
51801;DHT22;37855;53.204;6.568;2023-04-24T06:57:45;10.00;80.70
51801;DHT22;37855;53.204;6.568;2023-04-24T07:00:11;10.00;80.50
51801;DHT22;37855;53.204;6.568;2023-04-24T07:02:37;10.00;80.60
51801;DHT22;37855;53.204;6.568;2023-04-24T07:05:04;10.00;80.50
51801;DHT22;37855;53.204;6.568;2023-04-24T07:07:30;10.00;80.30
51801;DHT22;37855;53.204;6.568;2023-04-24T07:09:56;10.00;79.90
51801;DHT22;37855;53.204;6.568;2023-04-24T07:12:23;10.00;79.90
51801;DHT22;37855;53.204;6.568;2023-04-24T07:14:49;10.00;80.00
51801;DHT22;37855;53.204;6.568;2023-04-24T07:17:15;10.00;79.80
51801;DHT22;37855;53.204;6.568;2023-04-24T07:19:41;10.00;80.00
51801;DHT22;37855;53.204;6.568;2023-04-24T07:22:07;10.00;80.00
51801;DHT22;37855;53.204;6.568;2023-04-24T07:24:32;10.10;79.90
51801;DHT22;37855;53.204;6.568;2023-04-24T07:26:58;10.00;79.50
51801;DHT22;37855;53.204;6.568;2023-04-24T07:29:24;10.00;79.50
51801;DHT22;37855;53.204;6.568;2023-04-24T07:31:50;10.00;79.60
51801;DHT22;37855;53.204;6.568;2023-04-24T07:34:16;9.90;79.50
51801;DHT22;37855;53.204;6.568;2023-04-24T07:36:42;9.90;79.70
51801;DHT22;37855;53.204;6.568;2023-04-24T07:39:07;9.80;79.70
51801;DHT22;37855;53.204;6.568;2023-04-24T07:41:33;9.90;79.50
51801;DHT22;37855;53.204;6.568;2023-04-24T07:43:59;9.80;79.50
51801;DHT22;37855;53.204;6.568;2023-04-24T07:46:25;9.80;79.50
51801;DHT22;37855;53.204;6.568;2023-04-24T07:48:53;9.80;79.20
51801;DHT22;37855;53.204;6.568;2023-04-24T07:51:19;9.80;79.30
51801;DHT22;37855;53.204;6.568;2023-04-24T07:53:45;9.80;79.30
51801;DHT22;37855;53.204;6.568;2023-04-24T07:56:10;9.80;79.40
51801;DHT22;37855;53.204;6.568;2023-04-24T07:58:36;9.80;79.40
51801;DHT22;37855;53.204;6.568;2023-04-24T08:01:02;9.70;79.20
51801;DHT22;37855;53.204;6.568;2023-04-24T08:03:28;9.80;78.80
51801;DHT22;37855;53.204;6.568;2023-04-24T08:05:53;9.70;78.20
51801;DHT22;37855;53.204;6.568;2023-04-24T08:08:21;9.70;78.30
51801;DHT22;37855;53.204;6.568;2023-04-24T08:10:47;9.70;78.40
51801;DHT22;37855;53.204;6.568;2023-04-24T08:13:13;9.70;78.30
51801;DHT22;37855;53.204;6.568;2023-04-24T08:15:39;9.60;78.70
51801;DHT22;37855;53.204;6.568;2023-04-24T08:18:04;9.60;78.70
51801;DHT22;37855;53.204;6.568;2023-04-24T08:20:30;9.60;78.70
51801;DHT22;37855;53.204;6.568;2023-04-24T08:22:56;9.50;78.90
51801;DHT22;37855;53.204;6.568;2023-04-24T08:25:22;9.50;78.90
51801;DHT22;37855;53.204;6.568;2023-04-24T08:27:50;9.60;78.80
51801;DHT22;37855;53.204;6.568;2023-04-24T08:30:16;9.60;78.80
51801;DHT22;37855;53.204;6.568;2023-04-24T08:32:42;9.50;78.60
51801;DHT22;37855;53.204;6.568;2023-04-24T08:35:08;9.50;78.50
51801;DHT22;37855;53.204;6.568;2023-04-24T08:37:35;9.40;78.50
51801;DHT22;37855;53.204;6.568;2023-04-24T08:40:05;9.40;78.50
51801;DHT22;37855;53.204;6.568;2023-04-24T08:42:33;9.40;78.50
51801;DHT22;37855;53.204;6.568;2023-04-24T08:45:01;9.40;78.20
51801;DHT22;37855;53.204;6.568;2023-04-24T08:47:29;9.40;77.90
51801;DHT22;37855;53.204;6.568;2023-04-24T08:49:56;9.40;77.90
51801;DHT22;37855;53.204;6.568;2023-04-24T08:52:22;9.30;78.10
51801;DHT22;37855;53.204;6.568;2023-04-24T08:54:48;9.30;78.00
51801;DHT22;37855;53.204;6.568;2023-04-24T08:57:14;9.20;77.70
51801;DHT22;37855;53.204;6.568;2023-04-24T08:59:44;9.20;77.50
51801;DHT22;37855;53.204;6.568;2023-04-24T09:02:10;9.10;77.40
51801;DHT22;37855;53.204;6.568;2023-04-24T09:04:40;9.10;77.50
51801;DHT22;37855;53.204;6.568;2023-04-24T09:07:06;9.10;77.50
51801;DHT22;37855;53.204;6.568;2023-04-24T09:09:33;9.10;77.60
51801;DHT22;37855;53.204;6.568;2023-04-24T09:11:58;9.00;77.70
51801;DHT22;37855;53.204;6.568;2023-04-24T09:14:26;9.00;76.40
51801;DHT22;37855;53.204;6.568;2023-04-24T09:16:52;9.00;76.20
51801;DHT22;37855;53.204;6.568;2023-04-24T09:19:17;9.00;76.50
51801;DHT22;37855;53.204;6.568;2023-04-24T09:21:45;9.00;76.30
51801;DHT22;37855;53.204;6.568;2023-04-24T09:24:17;9.00;76.60
51801;DHT22;37855;53.204;6.568;2023-04-24T09:26:48;9.00;76.70
51801;DHT22;37855;53.204;6.568;2023-04-24T09:29:16;9.00;76.30
51801;DHT22;37855;53.204;6.568;2023-04-24T09:31:42;9.00;75.70
51801;DHT22;37855;53.204;6.568;2023-04-24T09:34:08;9.00;75.70
51801;DHT22;37855;53.204;6.568;2023-04-24T09:36:42;9.10;75.20
51801;DHT22;37855;53.204;6.568;2023-04-24T09:39:13;9.10;74.80
51801;DHT22;37855;53.204;6.568;2023-04-24T09:41:55;9.10;75.20
51801;DHT22;37855;53.204;6.568;2023-04-24T09:44:24;9.10;75.20
51801;DHT22;37855;53.204;6.568;2023-04-24T09:46:55;9.10;75.30
51801;DHT22;37855;53.204;6.568;2023-04-24T09:49:30;9.10;75.90
51801;DHT22;37855;53.204;6.568;2023-04-24T09:52:06;9.10;76.00
51801;DHT22;37855;53.204;6.568;2023-04-24T09:54:35;9.00;75.70
51801;DHT22;37855;53.204;6.568;2023-04-24T09:57:02;9.10;75.60
51801;DHT22;37855;53.204;6.568;2023-04-24T09:59:29;9.10;75.20
51801;DHT22;37855;53.204;6.568;2023-04-24T10:01:59;9.10;75.00
51801;DHT22;37855;53.204;6.568;2023-04-24T10:04:27;9.20;75.20
51801;DHT22;37855;53.204;6.568;2023-04-24T10:06:54;9.20;73.50
51801;DHT22;37855;53.204;6.568;2023-04-24T10:09:23;9.40;72.70
51801;DHT22;37855;53.204;6.568;2023-04-24T10:11:50;9.40;72.50
51801;DHT22;37855;53.204;6.568;2023-04-24T10:14:19;9.50;71.80
51801;DHT22;37855;53.204;6.568;2023-04-24T10:16:46;9.60;71.80
51801;DHT22;37855;53.204;6.568;2023-04-24T10:19:15;9.70;70.40
51801;DHT22;37855;53.204;6.568;2023-04-24T10:21:43;9.70;69.20
51801;DHT22;37855;53.204;6.568;2023-04-24T10:24:20;9.80;69.10
51801;DHT22;37855;53.204;6.568;2023-04-24T10:26:47;9.80;68.90
51801;DHT22;37855;53.204;6.568;2023-04-24T10:29:17;9.80;68.60
51801;DHT22;37855;53.204;6.568;2023-04-24T10:31:43;9.90;68.50
51801;DHT22;37855;53.204;6.568;2023-04-24T10:34:11;9.90;68.60
51801;DHT22;37855;53.204;6.568;2023-04-24T10:36:40;10.00;68.30
51801;DHT22;37855;53.204;6.568;2023-04-24T10:39:12;10.10;67.70
51801;DHT22;37855;53.204;6.568;2023-04-24T10:41:38;10.10;68.20
51801;DHT22;37855;53.204;6.568;2023-04-24T10:44:08;10.10;67.80
51801;DHT22;37855;53.204;6.568;2023-04-24T10:46:35;10.10;68.10
51801;DHT22;37855;53.204;6.568;2023-04-24T10:49:08;10.10;68.00
51801;DHT22;37855;53.204;6.568;2023-04-24T10:51:53;10.10;68.00
51801;DHT22;37855;53.204;6.568;2023-04-24T10:54:55;10.10;68.00
51801;DHT22;37855;53.204;6.568;2023-04-24T11:00:09;10.20;67.20
51801;DHT22;37855;53.204;6.568;2023-04-24T11:02:36;10.10;67.00
51801;DHT22;37855;53.204;6.568;2023-04-24T11:07:28;10.00;66.10
51801;DHT22;37855;53.204;6.568;2023-04-24T11:10:03;10.00;66.60
51801;DHT22;37855;53.204;6.568;2023-04-24T11:12:29;10.00;66.70
51801;DHT22;37855;53.204;6.568;2023-04-24T11:17:35;9.90;67.00
51801;DHT22;37855;53.204;6.568;2023-04-24T11:20:07;9.90;67.20
51801;DHT22;37855;53.204;6.568;2023-04-24T11:22:36;9.90;66.80
51801;DHT22;37855;53.204;6.568;2023-04-24T11:27:41;9.90;66.60
51801;DHT22;37855;53.204;6.568;2023-04-24T11:30:08;9.90;66.70
51801;DHT22;37855;53.204;6.568;2023-04-24T11:37:46;9.90;67.20
51801;DHT22;37855;53.204;6.568;2023-04-24T11:40:15;9.90;67.10
51801;DHT22;37855;53.204;6.568;2023-04-24T11:42:42;9.90;67.40
51801;DHT22;37855;53.204;6.568;2023-04-24T11:45:16;9.90;67.00
51801;DHT22;37855;53.204;6.568;2023-04-24T11:47:43;9.90;67.20
51801;DHT22;37855;53.204;6.568;2023-04-24T11:50:12;9.90;67.30
51801;DHT22;37855;53.204;6.568;2023-04-24T11:52:45;9.90;67.30
51801;DHT22;37855;53.204;6.568;2023-04-24T11:57:43;10.00;67.00
51801;DHT22;37855;53.204;6.568;2023-04-24T12:00:19;10.00;66.10
51801;DHT22;37855;53.204;6.568;2023-04-24T12:02:46;10.00;65.80
51801;DHT22;37855;53.204;6.568;2023-04-24T12:05:24;9.90;66.40
51801;DHT22;37855;53.204;6.568;2023-04-24T12:07:51;9.90;66.80
51801;DHT22;37855;53.204;6.568;2023-04-24T12:12:48;9.70;68.40
51801;DHT22;37855;53.204;6.568;2023-04-24T12:15:16;9.60;69.00
51801;DHT22;37855;53.204;6.568;2023-04-24T12:17:42;9.60;69.10
51801;DHT22;37855;53.204;6.568;2023-04-24T12:20:09;9.60;69.10
51801;DHT22;37855;53.204;6.568;2023-04-24T12:22:52;9.60;69.00
51801;DHT22;37855;53.204;6.568;2023-04-24T12:25:21;9.60;68.70
51801;DHT22;37855;53.204;6.568;2023-04-24T12:27:53;9.60;68.80
51801;DHT22;37855;53.204;6.568;2023-04-24T12:30:22;9.90;70.00
51801;DHT22;37855;53.204;6.568;2023-04-24T12:32:52;10.30;68.90
51801;DHT22;37855;53.204;6.568;2023-04-24T12:35:21;10.90;69.30
51801;DHT22;37855;53.204;6.568;2023-04-24T12:37:47;11.50;68.30
51801;DHT22;37855;53.204;6.568;2023-04-24T12:40:14;11.80;64.50
51801;DHT22;37855;53.204;6.568;2023-04-24T12:42:48;11.60;63.20
51801;DHT22;37855;53.204;6.568;2023-04-24T12:45:15;11.40;63.20
51801;DHT22;37855;53.204;6.568;2023-04-24T12:47:42;11.20;62.70
51801;DHT22;37855;53.204;6.568;2023-04-24T12:50:13;10.90;62.10
51801;DHT22;37855;53.204;6.568;2023-04-24T12:52:40;10.70;61.60
51801;DHT22;37855;53.204;6.568;2023-04-24T12:55:06;10.60;61.80
51801;DHT22;37855;53.204;6.568;2023-04-24T12:57:37;10.40;62.30
51801;DHT22;37855;53.204;6.568;2023-04-24T13:00:07;10.30;63.00
51801;DHT22;37855;53.204;6.568;2023-04-24T13:02:33;10.30;63.30
51801;DHT22;37855;53.204;6.568;2023-04-24T13:04:59;10.30;63.60
51801;DHT22;37855;53.204;6.568;2023-04-24T13:07:26;10.20;63.70
51801;DHT22;37855;53.204;6.568;2023-04-24T13:09:52;10.10;64.00
51801;DHT22;37855;53.204;6.568;2023-04-24T13:12:18;10.00;64.60
51801;DHT22;37855;53.204;6.568;2023-04-24T13:14:45;9.90;65.10
51801;DHT22;37855;53.204;6.568;2023-04-24T13:17:11;9.80;65.50
51801;DHT22;37855;53.204;6.568;2023-04-24T13:19:42;9.80;66.00
51801;DHT22;37855;53.204;6.568;2023-04-24T13:22:10;9.70;66.30
51801;DHT22;37855;53.204;6.568;2023-04-24T13:24:37;9.70;66.80
51801;DHT22;37855;53.204;6.568;2023-04-24T13:27:03;9.70;67.20
51801;DHT22;37855;53.204;6.568;2023-04-24T13:29:29;9.70;67.50
51801;DHT22;37855;53.204;6.568;2023-04-24T13:31:55;9.70;67.90
51801;DHT22;37855;53.204;6.568;2023-04-24T13:34:25;9.70;67.80
51801;DHT22;37855;53.204;6.568;2023-04-24T13:36:54;9.70;67.70
51801;DHT22;37855;53.204;6.568;2023-04-24T13:39:21;9.90;67.10
51801;DHT22;37855;53.204;6.568;2023-04-24T13:41:47;9.90;66.50
51801;DHT22;37855;53.204;6.568;2023-04-24T13:44:14;9.90;65.50
51801;DHT22;37855;53.204;6.568;2023-04-24T13:46:41;10.00;64.50
51801;DHT22;37855;53.204;6.568;2023-04-24T13:49:10;9.90;64.50
51801;DHT22;37855;53.204;6.568;2023-04-24T13:51:36;10.00;64.60
51801;DHT22;37855;53.204;6.568;2023-04-24T13:54:01;9.90;64.80
51801;DHT22;37855;53.204;6.568;2023-04-24T13:56:27;10.00;64.80
51801;DHT22;37855;53.204;6.568;2023-04-24T13:58:53;9.90;64.90
51801;DHT22;37855;53.204;6.568;2023-04-24T14:01:25;9.90;65.10
51801;DHT22;37855;53.204;6.568;2023-04-24T14:03:54;10.00;65.40
51801;DHT22;37855;53.204;6.568;2023-04-24T14:06:21;10.00;65.70
51801;DHT22;37855;53.204;6.568;2023-04-24T14:08:49;10.00;66.40
51801;DHT22;37855;53.204;6.568;2023-04-24T14:11:16;9.90;67.60
51801;DHT22;37855;53.204;6.568;2023-04-24T14:13:42;9.80;68.20
51801;DHT22;37855;53.204;6.568;2023-04-24T14:16:09;9.80;68.40
51801;DHT22;37855;53.204;6.568;2023-04-24T14:18:35;9.70;68.80
51801;DHT22;37855;53.204;6.568;2023-04-24T14:21:02;9.70;69.10
51801;DHT22;37855;53.204;6.568;2023-04-24T14:23:28;9.60;69.30
51801;DHT22;37855;53.204;6.568;2023-04-24T14:25:54;9.60;69.60
51801;DHT22;37855;53.204;6.568;2023-04-24T14:28:20;9.60;69.90
51801;DHT22;37855;53.204;6.568;2023-04-24T14:30:47;9.60;70.40
51801;DHT22;37855;53.204;6.568;2023-04-24T14:33:13;9.50;70.90
51801;DHT22;37855;53.204;6.568;2023-04-24T14:35:39;9.50;71.30
51801;DHT22;37855;53.204;6.568;2023-04-24T14:38:05;9.50;71.40
51801;DHT22;37855;53.204;6.568;2023-04-24T14:40:31;9.50;71.60
51801;DHT22;37855;53.204;6.568;2023-04-24T14:42:58;9.50;71.30
51801;DHT22;37855;53.204;6.568;2023-04-24T14:45:24;9.60;71.10
51801;DHT22;37855;53.204;6.568;2023-04-24T14:47:50;9.50;71.00
51801;DHT22;37855;53.204;6.568;2023-04-24T14:50:17;9.60;71.00
51801;DHT22;37855;53.204;6.568;2023-04-24T14:52:43;9.60;70.60
51801;DHT22;37855;53.204;6.568;2023-04-24T14:55:09;9.70;70.00
51801;DHT22;37855;53.204;6.568;2023-04-24T14:57:35;9.70;70.00
51801;DHT22;37855;53.204;6.568;2023-04-24T15:00:02;9.70;70.00
51801;DHT22;37855;53.204;6.568;2023-04-24T15:02:29;9.70;69.90
51801;DHT22;37855;53.204;6.568;2023-04-24T15:04:54;9.70;69.70
51801;DHT22;37855;53.204;6.568;2023-04-24T15:07:21;9.60;70.50
51801;DHT22;37855;53.204;6.568;2023-04-24T15:09:47;9.60;70.70
51801;DHT22;37855;53.204;6.568;2023-04-24T15:12:13;9.70;71.50
51801;DHT22;37855;53.204;6.568;2023-04-24T15:14:39;9.70;71.20
51801;DHT22;37855;53.204;6.568;2023-04-24T15:17:04;9.70;71.20
51801;DHT22;37855;53.204;6.568;2023-04-24T15:19:31;9.70;71.60
51801;DHT22;37855;53.204;6.568;2023-04-24T15:21:56;9.70;71.40
51801;DHT22;37855;53.204;6.568;2023-04-24T15:24:22;9.70;71.70
51801;DHT22;37855;53.204;6.568;2023-04-24T15:26:47;9.90;72.90
51801;DHT22;37855;53.204;6.568;2023-04-24T15:29:13;10.20;71.70
51801;DHT22;37855;53.204;6.568;2023-04-24T15:31:39;10.30;70.70
51801;DHT22;37855;53.204;6.568;2023-04-24T15:34:06;10.20;70.60
51801;DHT22;37855;53.204;6.568;2023-04-24T15:36:32;10.00;70.80
51801;DHT22;37855;53.204;6.568;2023-04-24T15:38:58;9.90;70.80
51801;DHT22;37855;53.204;6.568;2023-04-24T15:41:23;9.80;71.20
51801;DHT22;37855;53.204;6.568;2023-04-24T15:43:49;9.80;71.20
51801;DHT22;37855;53.204;6.568;2023-04-24T15:46:15;9.70;71.50
51801;DHT22;37855;53.204;6.568;2023-04-24T15:48:44;9.80;71.60
51801;DHT22;37855;53.204;6.568;2023-04-24T15:51:10;9.70;72.00
51801;DHT22;37855;53.204;6.568;2023-04-24T15:53:36;9.60;72.50
51801;DHT22;37855;53.204;6.568;2023-04-24T15:56:01;9.60;72.70